createdAt,value
2023-03-26T00:01:05.724Z,1.87
2023-03-26T00:03:33.653Z,2.40
2023-03-26T00:06:13.526Z,2.53
2023-03-26T00:08:42.022Z,2.20
2023-03-26T00:11:10.101Z,1.73
2023-03-26T00:13:37.350Z,2.00
2023-03-26T00:16:04.978Z,2.30
2023-03-26T00:18:34.979Z,2.57
2023-03-26T00:21:03.587Z,2.50
2023-03-26T00:23:31.664Z,2.70
2023-03-26T00:25:58.981Z,2.70
2023-03-26T00:28:26.399Z,2.90
2023-03-26T00:31:01.277Z,3.20
2023-03-26T00:33:28.861Z,2.90
2023-03-26T00:35:58.872Z,3.87
2023-03-26T00:38:26.827Z,4.53
2023-03-26T00:40:54.414Z,4.50
2023-03-26T00:43:22.700Z,5.10
2023-03-26T00:45:51.126Z,4.33
2023-03-26T00:48:18.794Z,4.17
2023-03-26T00:50:46.999Z,4.10
2023-03-26T00:53:15.035Z,3.13
2023-03-26T00:55:42.795Z,2.83
2023-03-26T00:58:10.709Z,3.17
2023-03-26T01:00:40.270Z,3.80
2023-03-26T01:03:07.652Z,3.50
2023-03-26T01:05:34.902Z,4.67
2023-03-26T01:08:15.170Z,4.37
2023-03-26T01:10:43.590Z,4.17
2023-03-26T01:13:10.903Z,3.83
2023-03-26T01:15:39.120Z,2.30
2023-03-26T01:18:09.836Z,2.20
2023-03-26T01:20:39.838Z,1.80
2023-03-26T01:23:07.445Z,1.90
2023-03-26T01:25:39.392Z,1.77
2023-03-26T01:28:08.900Z,1.70
2023-03-26T01:30:42.403Z,2.00
2023-03-26T01:33:27.873Z,2.00
2023-03-26T01:35:58.924Z,1.70
2023-03-26T01:38:35.583Z,2.27
2023-03-26T01:41:09.795Z,1.87
2023-03-26T01:43:55.965Z,2.00
2023-03-26T01:46:25.648Z,1.80
2023-03-26T01:48:52.996Z,2.10
2023-03-26T01:51:28.842Z,2.17
2023-03-26T01:53:56.386Z,2.50
2023-03-26T01:56:38.203Z,1.97
2023-03-26T01:59:17.731Z,1.63
2023-03-26T02:01:54.896Z,1.73
2023-03-26T02:04:32.313Z,1.40
2023-03-26T02:07:18.274Z,1.40
2023-03-26T02:09:48.294Z,1.50
2023-03-26T02:12:15.918Z,1.60
2023-03-26T02:14:43.799Z,1.40
2023-03-26T02:17:11.685Z,1.40
2023-03-26T02:19:42.305Z,1.03
2023-03-26T02:22:15.752Z,1.33
2023-03-26T02:24:43.724Z,1.30
2023-03-26T02:27:12.364Z,1.30
2023-03-26T02:29:42.638Z,1.70
2023-03-26T02:32:13.606Z,1.27
2023-03-26T02:34:41.551Z,0.80
2023-03-26T02:37:09.133Z,1.30
2023-03-26T02:39:36.614Z,1.47
2023-03-26T02:42:03.831Z,1.20
2023-03-26T02:44:31.226Z,1.33
2023-03-26T02:46:58.464Z,1.40
2023-03-26T02:49:26.177Z,1.63
2023-03-26T02:51:56.265Z,1.20
2023-03-26T02:54:23.828Z,1.40
2023-03-26T02:56:51.375Z,1.57
2023-03-26T02:59:18.737Z,1.30
2023-03-26T03:01:45.922Z,1.80
2023-03-26T03:04:13.401Z,1.50
2023-03-26T03:06:40.900Z,1.27
2023-03-26T03:09:08.848Z,1.53
2023-03-26T03:11:40.753Z,1.50
2023-03-26T03:14:08.222Z,1.53
2023-03-26T03:16:35.568Z,1.80
2023-03-26T03:19:02.968Z,1.90
2023-03-26T03:21:30.247Z,1.50
2023-03-26T03:23:59.914Z,1.67
2023-03-26T03:26:29.792Z,1.70
2023-03-26T03:28:58.223Z,1.87
2023-03-26T03:31:26.631Z,2.10
2023-03-26T03:33:53.936Z,2.03
2023-03-26T03:36:23.061Z,1.90
2023-03-26T03:38:51.200Z,1.80
2023-03-26T03:41:18.817Z,1.70
2023-03-26T03:43:47.047Z,1.80
2023-03-26T03:46:14.389Z,1.70
2023-03-26T03:48:43.574Z,2.00
2023-03-26T03:51:10.733Z,1.57
2023-03-26T03:53:40.572Z,1.70
2023-03-26T03:56:10.548Z,1.80
2023-03-26T03:58:37.931Z,1.60
2023-03-26T04:01:05.152Z,1.93
2023-03-26T04:03:38.513Z,1.80
2023-03-26T04:06:11.136Z,2.07
2023-03-26T04:08:38.596Z,1.63
2023-03-26T04:11:06.439Z,1.60
2023-03-26T04:13:33.668Z,1.40
2023-03-26T04:16:01.168Z,1.37
2023-03-26T04:18:30.309Z,1.40
2023-03-26T04:21:02.395Z,1.20
2023-03-26T04:23:30.202Z,1.17
2023-03-26T04:25:58.269Z,1.23
2023-03-26T04:28:43.276Z,1.37
2023-03-26T04:31:11.933Z,1.30
2023-03-26T04:33:39.360Z,1.37
2023-03-26T04:36:07.077Z,1.33
2023-03-26T04:38:38.203Z,1.30
2023-03-26T04:41:07.895Z,1.33
2023-03-26T04:43:47.099Z,1.60
2023-03-26T04:46:14.835Z,1.60
2023-03-26T04:48:42.126Z,1.30
2023-03-26T04:51:10.227Z,1.80
2023-03-26T04:53:37.517Z,1.37
2023-03-26T04:56:09.905Z,1.30
2023-03-26T04:58:37.093Z,1.20
2023-03-26T05:01:10.571Z,1.63
2023-03-26T05:03:39.264Z,1.20
2023-03-26T05:06:06.586Z,1.50
2023-03-26T05:08:34.023Z,1.80
2023-03-26T05:11:01.801Z,1.10
2023-03-26T05:13:30.780Z,1.20
2023-03-26T05:15:58.177Z,0.90
2023-03-26T05:18:25.411Z,1.00
2023-03-26T05:20:53.326Z,1.20
2023-03-26T05:23:20.953Z,0.90
2023-03-26T05:25:48.318Z,1.20
2023-03-26T05:28:15.946Z,1.20
2023-03-26T05:30:43.674Z,1.10
2023-03-26T05:33:10.931Z,1.00
2023-03-26T05:35:38.196Z,0.97
2023-03-26T05:38:06.512Z,1.00
2023-03-26T05:40:33.699Z,0.77
2023-03-26T05:43:00.959Z,0.93
2023-03-26T05:45:28.253Z,1.00
2023-03-26T05:47:56.439Z,1.10
2023-03-26T05:50:23.993Z,1.10
2023-03-26T05:52:51.262Z,1.57
2023-03-26T05:55:20.174Z,1.30
2023-03-26T05:57:47.463Z,1.43
2023-03-26T06:00:15.137Z,1.60
2023-03-26T06:02:42.921Z,1.47
2023-03-26T06:05:10.476Z,1.03
2023-03-26T06:07:37.891Z,1.40
2023-03-26T06:10:05.523Z,1.73
2023-03-26T06:12:33.133Z,1.30
2023-03-26T06:15:00.517Z,1.20
2023-03-26T06:17:27.807Z,1.30
2023-03-26T06:19:55.011Z,1.60
2023-03-26T06:22:22.311Z,1.30
2023-03-26T06:24:50.268Z,1.27
2023-03-26T06:27:17.450Z,1.00
2023-03-26T06:29:44.790Z,1.37
2023-03-26T06:32:19.747Z,0.90
2023-03-26T06:34:47.793Z,1.23
2023-03-26T06:37:14.995Z,1.10
2023-03-26T06:39:42.356Z,1.23
2023-03-26T06:42:09.549Z,1.30
2023-03-26T06:44:36.765Z,1.20
2023-03-26T06:47:04.021Z,1.10
2023-03-26T06:49:31.501Z,0.93
2023-03-26T06:51:58.707Z,1.07
2023-03-26T06:54:27.594Z,1.10
2023-03-26T06:56:55.029Z,1.10
2023-03-26T06:59:22.790Z,0.80
2023-03-26T07:01:50.063Z,1.27
2023-03-26T07:04:17.813Z,1.80
2023-03-26T07:06:45.116Z,1.90
2023-03-26T07:09:12.351Z,2.40
2023-03-26T07:11:39.653Z,1.63
2023-03-26T07:14:06.909Z,2.80
2023-03-26T07:16:34.114Z,2.17
2023-03-26T07:19:01.322Z,1.63
2023-03-26T07:21:28.740Z,1.63
2023-03-26T07:23:56.667Z,1.70
2023-03-26T07:26:27.203Z,1.33
2023-03-26T07:29:14.649Z,1.30
2023-03-26T07:31:42.248Z,1.10
2023-03-26T07:34:18.071Z,1.30
2023-03-26T07:37:04.033Z,1.57
2023-03-26T07:39:44.564Z,1.27
2023-03-26T07:42:25.549Z,1.00
2023-03-26T07:44:58.648Z,1.10
2023-03-26T07:47:30.269Z,1.10
2023-03-26T07:49:57.941Z,1.13
2023-03-26T07:52:26.035Z,1.23
2023-03-26T07:54:53.865Z,1.10
2023-03-26T07:57:33.469Z,1.63
2023-03-26T08:00:00.872Z,1.33
2023-03-26T08:02:37.119Z,1.30
2023-03-26T08:05:22.962Z,1.60
2023-03-26T08:08:08.912Z,1.17
2023-03-26T08:10:41.924Z,1.30
2023-03-26T08:13:27.872Z,1.40
2023-03-26T08:16:09.508Z,1.70
2023-03-26T08:18:57.307Z,1.77
2023-03-26T08:21:27.264Z,1.53
2023-03-26T08:24:13.441Z,1.43
2023-03-26T08:26:47.321Z,1.77
2023-03-26T08:29:15.347Z,1.50
2023-03-26T08:31:44.080Z,1.63
2023-03-26T08:34:12.719Z,1.67
2023-03-26T08:36:40.197Z,1.67
2023-03-26T08:39:08.112Z,1.87
2023-03-26T08:41:53.864Z,1.30
2023-03-26T08:44:21.187Z,1.30
2023-03-26T08:46:48.969Z,1.50
2023-03-26T08:49:39.233Z,1.33
2023-03-26T08:52:25.645Z,1.37
2023-03-26T08:54:57.237Z,1.63
2023-03-26T08:57:40.453Z,1.40
2023-03-26T09:00:16.682Z,1.37
2023-03-26T09:02:56.164Z,0.87
2023-03-26T09:05:41.910Z,1.17
2023-03-26T09:08:29.862Z,1.07
2023-03-26T09:11:03.363Z,1.00
2023-03-26T09:13:33.509Z,1.00
2023-03-26T09:16:19.318Z,1.00
2023-03-26T09:18:53.691Z,0.93
2023-03-26T09:21:39.187Z,0.80
2023-03-26T09:24:06.417Z,0.83
2023-03-26T09:26:36.718Z,0.80
2023-03-26T09:29:06.694Z,1.07
2023-03-26T09:31:57.125Z,1.40
2023-03-26T09:34:30.671Z,0.83
2023-03-26T09:37:08.441Z,1.10
2023-03-26T09:39:50.839Z,1.17
2023-03-26T09:42:24.432Z,1.40
2023-03-26T09:45:10.709Z,1.00
2023-03-26T09:47:44.722Z,0.93
2023-03-26T09:50:21.667Z,1.57
2023-03-26T09:52:51.736Z,1.33
2023-03-26T09:55:32.355Z,1.43
2023-03-26T09:58:22.359Z,1.30
2023-03-26T10:01:05.814Z,1.30
2023-03-26T10:03:39.378Z,1.50
2023-03-26T10:06:39.231Z,1.20
2023-03-26T10:09:06.630Z,1.70
2023-03-26T10:11:40.459Z,1.30
2023-03-26T10:14:07.799Z,1.10
2023-03-26T10:16:47.056Z,0.90
2023-03-26T10:19:20.660Z,1.47
2023-03-26T10:21:50.968Z,0.90
2023-03-26T10:24:37.913Z,0.93
2023-03-26T10:27:16.414Z,0.70
2023-03-26T10:30:02.403Z,1.20
2023-03-26T10:32:34.539Z,1.10
2023-03-26T10:35:20.521Z,0.87
2023-03-26T10:38:03.495Z,0.80
2023-03-26T10:40:52.253Z,0.80
2023-03-26T10:43:36.332Z,0.67
2023-03-26T10:46:09.948Z,0.70
2023-03-26T10:48:56.622Z,0.70
2023-03-26T10:51:43.797Z,0.93
2023-03-26T10:54:29.629Z,0.50
2023-03-26T10:57:01.715Z,0.57
2023-03-26T10:59:30.692Z,0.70
2023-03-26T11:02:16.806Z,0.73
2023-03-26T11:04:55.534Z,0.90
2023-03-26T11:07:45.037Z,1.00
2023-03-26T11:10:12.672Z,0.90
2023-03-26T11:12:45.890Z,0.80
2023-03-26T11:15:13.157Z,1.00
2023-03-26T11:17:49.697Z,2.33
2023-03-26T11:20:23.263Z,0.87
2023-03-26T11:22:50.846Z,1.10
2023-03-26T11:25:33.466Z,1.10
2023-03-26T11:28:09.533Z,1.30
2023-03-26T11:30:51.528Z,1.43
2023-03-26T11:33:32.600Z,1.33
2023-03-26T11:36:03.700Z,1.43
2023-03-26T11:38:45.586Z,1.67
2023-03-26T11:41:22.829Z,2.33
2023-03-26T11:43:57.272Z,2.60
2023-03-26T11:46:26.105Z,2.70
2023-03-26T11:48:53.498Z,2.00
2023-03-26T11:51:33.879Z,2.20
2023-03-26T11:54:03.138Z,2.20
2023-03-26T11:56:35.970Z,1.67
2023-03-26T11:59:06.351Z,2.10
2023-03-26T12:01:44.168Z,2.10
2023-03-26T12:04:17.084Z,3.80
2023-03-26T12:06:52.992Z,5.70
2023-03-26T12:09:21.028Z,4.20
2023-03-26T12:11:49.361Z,2.20
2023-03-26T12:14:21.894Z,1.33
2023-03-26T12:17:08.013Z,1.40
2023-03-26T12:19:37.149Z,1.37
2023-03-26T12:22:04.365Z,1.80
2023-03-26T12:24:33.550Z,1.30
2023-03-26T12:27:20.968Z,1.90
2023-03-26T12:30:03.702Z,1.40
2023-03-26T12:35:08.024Z,1.57
2023-03-26T12:37:40.173Z,2.07
2023-03-26T12:40:27.527Z,1.90
2023-03-26T12:44:52.618Z,1.77
2023-03-26T12:45:46.071Z,2.23
2023-03-26T12:48:38.689Z,1.83
2023-03-26T12:51:13.979Z,1.70
2023-03-26T12:53:41.222Z,1.33
2023-03-26T12:56:20.118Z,1.70
2023-03-26T12:58:51.118Z,2.10
2023-03-26T13:01:30.720Z,2.50
2023-03-26T13:04:11.430Z,2.03
2023-03-26T13:06:59.457Z,1.40
2023-03-26T13:09:47.767Z,1.60
2023-03-26T13:12:20.804Z,1.63
2023-03-26T13:14:50.887Z,1.87
2023-03-26T13:17:26.081Z,1.73
2023-03-26T13:20:12.709Z,1.77
2023-03-26T13:22:51.896Z,1.70
2023-03-26T13:25:29.916Z,1.73
2023-03-26T13:28:09.141Z,1.53
2023-03-26T13:33:46.940Z,1.60
2023-03-26T13:36:22.543Z,1.80
2023-03-26T13:38:59.634Z,1.87
2023-03-26T13:41:36.949Z,2.20
2023-03-26T13:44:19.423Z,1.30
2023-03-26T13:46:55.146Z,1.37
2023-03-26T13:49:40.886Z,1.00
2023-03-26T13:52:11.728Z,2.30
2023-03-26T13:54:48.324Z,1.73
2023-03-26T13:57:41.506Z,2.43
2023-03-26T14:00:16.401Z,2.40
2023-03-26T14:02:44.636Z,1.20
2023-03-26T14:05:22.022Z,1.97
2023-03-26T14:08:26.746Z,1.83
2023-03-26T14:11:10.002Z,3.50
2023-03-26T14:13:48.699Z,2.50
2023-03-26T14:16:27.600Z,1.33
2023-03-26T14:19:27.660Z,1.63
2023-03-26T14:22:04.283Z,1.20
2023-03-26T14:24:41.094Z,1.47
2023-03-26T14:27:27.122Z,1.80
2023-03-26T14:30:13.035Z,1.70
2023-03-26T14:32:53.338Z,1.70
2023-03-26T14:35:37.433Z,1.80
2023-03-26T14:38:24.894Z,1.70
2023-03-26T14:40:52.131Z,1.50
2023-03-26T14:43:29.404Z,1.63
2023-03-26T14:46:15.684Z,1.80
2023-03-26T14:48:53.552Z,1.30
2023-03-26T14:51:45.730Z,1.70
2023-03-26T14:54:19.723Z,2.00
2023-03-26T14:57:10.440Z,2.03
2023-03-26T14:59:49.983Z,2.80
2023-03-26T15:02:24.052Z,2.73
2023-03-26T15:05:19.997Z,2.40
2023-03-26T15:08:08.572Z,2.63
2023-03-26T15:10:39.455Z,1.80
2023-03-26T15:13:32.481Z,1.60
2023-03-26T15:16:09.072Z,2.23
2023-03-26T15:18:48.580Z,2.30
2023-03-26T15:21:36.765Z,4.20
2023-03-26T15:24:04.656Z,2.90
2023-03-26T15:26:44.203Z,3.03
2023-03-26T15:29:11.590Z,3.47
2023-03-26T15:31:50.564Z,3.17
2023-03-26T15:34:30.548Z,3.63
2023-03-26T15:37:17.176Z,3.17
2023-03-26T15:39:59.475Z,2.30
2023-03-26T15:42:44.744Z,2.00
2023-03-26T15:45:42.630Z,1.40
2023-03-26T15:48:12.903Z,1.43
2023-03-26T15:50:45.739Z,1.40
2023-03-26T15:53:35.300Z,1.27
2023-03-26T15:56:22.051Z,1.20
2023-03-26T15:59:05.446Z,1.57
2023-03-26T16:01:43.124Z,1.30
2023-03-26T16:04:17.424Z,1.47
2023-03-26T16:06:50.573Z,1.20
2023-03-26T16:09:39.420Z,1.70
2023-03-26T16:12:12.682Z,1.67
2023-03-26T16:14:42.964Z,2.17
2023-03-26T16:17:14.538Z,2.20
2023-03-26T16:19:48.236Z,3.43
2023-03-26T16:22:35.489Z,4.47
2023-03-26T16:25:28.231Z,4.40
2023-03-26T16:28:16.399Z,5.73
2023-03-26T16:30:46.015Z,4.20
2023-03-26T16:33:15.884Z,3.83
2023-03-26T16:36:02.492Z,4.70
2023-03-26T16:38:50.357Z,4.03
2023-03-26T16:41:22.345Z,5.13
2023-03-26T16:43:52.635Z,4.43
2023-03-26T16:46:29.193Z,6.43
2023-03-26T16:49:08.894Z,7.03
2023-03-26T16:51:56.672Z,6.13
2023-03-26T16:54:26.200Z,5.40
2023-03-26T16:56:53.541Z,6.00
2023-03-26T16:59:37.945Z,7.13
2023-03-26T17:02:17.961Z,7.47
2023-03-26T17:04:48.449Z,8.90
2023-03-26T17:07:36.567Z,9.50
2023-03-26T17:10:10.837Z,8.77
2023-03-26T17:12:42.869Z,6.93
2023-03-26T17:15:13.284Z,5.37
2023-03-26T17:17:59.661Z,4.43
2023-03-26T17:20:55.932Z,4.77
2023-03-26T17:23:39.844Z,5.97
2023-03-26T17:26:12.995Z,6.37
2023-03-26T17:28:46.049Z,7.50
2023-03-26T17:31:19.303Z,7.37
2023-03-26T17:33:48.375Z,8.53
2023-03-26T17:36:18.586Z,9.33
2023-03-26T17:38:49.451Z,7.97
2023-03-26T17:41:36.906Z,9.27
2023-03-26T17:44:24.223Z,9.93
2023-03-26T17:46:52.313Z,11.70
2023-03-26T17:49:22.031Z,11.67
2023-03-26T17:51:52.355Z,8.77
2023-03-26T17:54:25.213Z,9.70
2023-03-26T17:56:53.782Z,13.27
2023-03-26T17:59:25.915Z,12.87
2023-03-26T18:01:55.772Z,13.60
2023-03-26T18:04:45.142Z,14.10
2023-03-26T18:07:16.669Z,14.77
2023-03-26T18:09:50.048Z,14.90
2023-03-26T18:12:23.238Z,17.70
2023-03-26T18:14:56.409Z,18.53
2023-03-26T18:17:24.752Z,23.20
2023-03-26T18:20:06.380Z,27.60
2023-03-26T18:22:34.210Z,32.40
2023-03-26T18:25:02.864Z,37.00
2023-03-26T18:27:36.841Z,42.73
2023-03-26T18:30:14.867Z,56.07
2023-03-26T18:32:50.876Z,77.23
2023-03-26T18:35:20.513Z,75.80
2023-03-26T18:37:49.276Z,67.97
2023-03-26T18:40:22.460Z,64.50
2023-03-26T18:42:55.336Z,63.93
2023-03-26T18:45:34.125Z,56.37
2023-03-26T18:48:13.274Z,57.43
2023-03-26T18:50:42.290Z,55.87
2023-03-26T18:53:15.413Z,60.33
2023-03-26T18:55:44.506Z,56.47
2023-03-26T18:58:30.733Z,51.70
2023-03-26T19:01:00.159Z,51.73
2023-03-26T19:03:27.585Z,49.37
2023-03-26T19:05:56.189Z,47.37
2023-03-26T19:08:24.551Z,47.97
2023-03-26T19:10:53.090Z,42.03
2023-03-26T19:13:23.557Z,45.00
2023-03-26T19:15:51.937Z,41.90
2023-03-26T19:18:20.796Z,40.83
2023-03-26T19:20:53.612Z,42.83
2023-03-26T19:23:22.202Z,43.50
2023-03-26T19:25:51.353Z,40.33
2023-03-26T19:28:24.058Z,38.50
2023-03-26T19:30:58.947Z,37.77
2023-03-26T19:33:33.537Z,35.03
2023-03-26T19:36:03.786Z,35.10
2023-03-26T19:38:38.322Z,35.07
2023-03-26T19:41:05.649Z,33.13
2023-03-26T19:43:32.866Z,32.90
2023-03-26T19:46:01.259Z,32.67
2023-03-26T19:48:46.151Z,33.13
2023-03-26T19:51:20.314Z,34.70
2023-03-26T19:53:49.649Z,32.27
2023-03-26T19:56:18.646Z,30.50
2023-03-26T19:58:46.149Z,34.10
2023-03-26T20:01:17.772Z,35.77
2023-03-26T20:03:47.079Z,34.97
2023-03-26T20:06:16.157Z,37.17
2023-03-26T20:08:43.884Z,40.77
2023-03-26T20:11:15.884Z,46.40
2023-03-26T20:13:43.126Z,49.83
2023-03-26T20:16:29.902Z,50.00
2023-03-26T20:18:58.010Z,51.70
2023-03-26T20:21:26.127Z,52.07
2023-03-26T20:23:53.711Z,56.00
2023-03-26T20:26:21.412Z,57.53
2023-03-26T20:28:52.883Z,61.97
2023-03-26T20:31:22.801Z,71.83
2023-03-26T20:33:50.914Z,70.50
2023-03-26T20:36:34.127Z,71.03
2023-03-26T20:39:08.497Z,66.87
2023-03-26T20:41:38.171Z,68.67
2023-03-26T20:44:07.090Z,67.33
2023-03-26T20:46:34.427Z,77.07
2023-03-26T20:49:01.647Z,78.27
2023-03-26T20:51:29.159Z,87.10
2023-03-26T20:53:56.894Z,91.47
2023-03-26T20:56:24.075Z,95.80
2023-03-26T20:59:09.701Z,95.90
2023-03-26T21:01:38.764Z,90.97
2023-03-26T21:04:06.672Z,88.67
2023-03-26T21:06:33.976Z,87.23
2023-03-26T21:09:01.350Z,81.70
2023-03-26T21:11:48.410Z,82.40
2023-03-26T21:14:15.813Z,79.37
2023-03-26T21:16:43.184Z,86.73
2023-03-26T21:19:11.148Z,78.20
2023-03-26T21:21:50.009Z,82.30
2023-03-26T21:24:26.037Z,86.93
2023-03-26T21:27:13.744Z,84.07
2023-03-26T21:29:41.196Z,64.53
2023-03-26T21:32:10.495Z,61.07
2023-03-26T21:34:42.014Z,55.80
2023-03-26T21:37:12.848Z,40.40
2023-03-26T21:39:42.805Z,19.23
2023-03-26T21:42:11.280Z,15.23
2023-03-26T21:44:38.819Z,10.27
2023-03-26T21:47:10.109Z,7.40
2023-03-26T21:49:38.551Z,7.73
2023-03-26T21:52:06.114Z,5.90
2023-03-26T21:54:33.637Z,6.13
2023-03-26T21:57:01.189Z,6.23
2023-03-26T21:59:34.169Z,5.73
2023-03-26T22:02:16.418Z,5.23
2023-03-26T22:04:47.002Z,5.20
2023-03-26T22:07:23.873Z,4.87
2023-03-26T22:09:52.630Z,5.20
2023-03-26T22:12:19.942Z,4.70
2023-03-26T22:14:47.708Z,4.37
2023-03-26T22:17:15.498Z,4.47
2023-03-26T22:19:43.693Z,5.03
2023-03-26T22:22:10.948Z,4.77
2023-03-26T22:24:38.571Z,4.37
2023-03-26T22:27:07.220Z,3.67
2023-03-26T22:29:34.406Z,4.70
2023-03-26T22:32:03.510Z,4.13
2023-03-26T22:34:31.772Z,4.37
2023-03-26T22:36:59.091Z,3.60
2023-03-26T22:39:27.182Z,4.20
2023-03-26T22:41:54.511Z,3.67
2023-03-26T22:44:21.949Z,4.57
2023-03-26T22:46:51.288Z,4.10
2023-03-26T22:49:19.091Z,3.77
2023-03-26T22:51:46.821Z,4.17
2023-03-26T22:54:14.699Z,4.00
2023-03-26T22:56:41.962Z,4.23
2023-03-26T22:59:09.177Z,3.77
2023-03-26T23:01:36.417Z,3.73
2023-03-26T23:04:03.709Z,3.57
2023-03-26T23:06:32.045Z,3.63
2023-03-26T23:08:59.459Z,4.30
2023-03-26T23:11:26.747Z,3.87
2023-03-26T23:13:53.943Z,4.67
2023-03-26T23:16:21.794Z,4.20
2023-03-26T23:18:49.317Z,4.10
2023-03-26T23:21:18.519Z,3.77
2023-03-26T23:23:46.116Z,4.33
2023-03-26T23:26:14.883Z,5.40
2023-03-26T23:28:42.151Z,4.63
2023-03-26T23:31:10.456Z,4.90
2023-03-26T23:33:38.995Z,4.03
2023-03-26T23:36:08.860Z,4.17
2023-03-26T23:38:43.008Z,3.97
2023-03-26T23:41:15.264Z,4.17
2023-03-26T23:43:53.555Z,4.53
2023-03-26T23:46:36.017Z,4.67
2023-03-26T23:49:03.765Z,4.67
2023-03-26T23:51:31.692Z,5.00
2023-03-26T23:53:59.718Z,4.63
2023-03-26T23:56:30.341Z,5.00
2023-03-26T23:58:58.485Z,4.83
